createdAt,value
2019-01-17T00:01:30.339Z,8.30
2019-01-17T00:04:49.806Z,8.30
2019-01-17T00:08:13.363Z,8.30
2019-01-17T00:11:32.735Z,8.30
2019-01-17T00:14:50.606Z,8.30
2019-01-17T00:17:59.600Z,8.30
2019-01-17T00:21:16.642Z,8.30
2019-01-17T00:24:45.103Z,8.30
2019-01-17T00:28:10.333Z,8.30
2019-01-17T00:31:25.060Z,8.30
2019-01-17T00:34:47.186Z,8.30
2019-01-17T00:38:06.464Z,8.30
2019-01-17T00:41:18.595Z,8.30
2019-01-17T00:44:56.394Z,8.30
2019-01-17T00:48:14.446Z,8.30
2019-01-17T00:51:42.798Z,8.30
2019-01-17T00:55:04.822Z,8.30
2019-01-17T00:58:23.883Z,8.30
2019-01-17T01:01:35.926Z,8.30
2019-01-17T01:04:57.150Z,8.30
2019-01-17T01:08:15.154Z,8.30
2019-01-17T01:11:33.087Z,8.20
2019-01-17T01:14:52.386Z,8.30
2019-01-17T01:18:07.116Z,8.20
2019-01-17T01:21:29.359Z,8.30
2019-01-17T01:24:59.167Z,8.20
2019-01-17T01:28:22.418Z,8.30
2019-01-17T01:31:45.213Z,8.30
2019-01-17T01:34:57.542Z,8.30
2019-01-17T01:38:29.130Z,8.20
2019-01-17T01:41:41.430Z,8.20
2019-01-17T01:45:09.861Z,8.30
2019-01-17T01:48:22.460Z,8.20
2019-01-17T01:51:50.666Z,8.20
2019-01-17T01:54:50.936Z,8.20
2019-01-17T01:57:51.369Z,8.20
2019-01-17T02:00:52.027Z,8.20
2019-01-17T02:03:52.791Z,8.20
2019-01-17T02:06:53.153Z,8.20
2019-01-17T02:09:53.747Z,8.30
2019-01-17T02:12:54.031Z,8.20
2019-01-17T02:15:54.325Z,8.20
2019-01-17T02:18:54.735Z,8.20
2019-01-17T02:21:55.123Z,8.30
2019-01-17T02:24:55.642Z,8.20
2019-01-17T02:27:55.966Z,8.30
2019-01-17T02:30:56.418Z,8.30
2019-01-17T02:33:56.816Z,8.30
2019-01-17T02:36:57.359Z,8.30
2019-01-17T02:39:57.758Z,8.30
2019-01-17T02:42:58.093Z,8.30
2019-01-17T02:45:58.596Z,8.30
2019-01-17T02:49:01.222Z,8.30
2019-01-17T02:52:01.771Z,8.30
2019-01-17T02:55:02.052Z,8.30
2019-01-17T02:58:02.380Z,8.30
2019-01-17T03:01:02.742Z,8.30
2019-01-17T03:04:03.122Z,8.30
2019-01-17T03:07:03.601Z,8.30
2019-01-17T03:10:04.349Z,8.30
2019-01-17T03:13:04.796Z,8.30
2019-01-17T03:16:05.084Z,8.30
2019-01-17T03:19:05.748Z,8.30
2019-01-17T03:22:06.042Z,8.30
2019-01-17T03:25:07.106Z,8.30
2019-01-17T03:28:07.617Z,8.30
2019-01-17T03:31:09.605Z,8.30
2019-01-17T03:34:10.014Z,8.30
2019-01-17T03:37:10.358Z,8.30
2019-01-17T03:40:13.284Z,8.30
2019-01-17T03:43:13.687Z,8.30
2019-01-17T03:46:14.119Z,8.30
2019-01-17T03:49:14.471Z,8.30
2019-01-17T03:52:14.875Z,8.30
2019-01-17T03:55:18.179Z,8.30
2019-01-17T03:58:18.741Z,8.30
2019-01-17T04:01:22.190Z,8.30
2019-01-17T04:04:22.582Z,8.30
2019-01-17T04:07:22.990Z,8.30
2019-01-17T04:10:23.347Z,8.30
2019-01-17T04:13:23.807Z,8.30
2019-01-17T04:16:24.272Z,8.30
2019-01-17T04:19:24.687Z,8.30
2019-01-17T04:22:25.033Z,8.30
2019-01-17T04:25:25.486Z,8.30
2019-01-17T04:28:26.132Z,8.30
2019-01-17T04:31:26.511Z,8.30
2019-01-17T04:34:26.866Z,8.30
2019-01-17T04:37:27.326Z,8.30
2019-01-17T04:40:27.762Z,8.30
2019-01-17T04:43:29.324Z,8.40
2019-01-17T04:46:29.684Z,8.30
2019-01-17T04:49:30.163Z,8.40
2019-01-17T04:52:30.446Z,8.40
2019-01-17T04:55:30.803Z,8.40
2019-01-17T04:58:34.059Z,8.40
2019-01-17T05:01:37.207Z,8.40
2019-01-17T05:04:37.483Z,8.40
2019-01-17T05:07:37.824Z,8.40
2019-01-17T05:10:38.189Z,8.40
2019-01-17T05:13:38.530Z,8.40
2019-01-17T05:16:38.835Z,8.40
2019-01-17T05:19:39.175Z,8.40
2019-01-17T05:22:43.626Z,8.40
2019-01-17T05:25:44.188Z,8.40
2019-01-17T05:28:44.645Z,8.40
2019-01-17T05:31:45.072Z,8.40
2019-01-17T05:34:45.876Z,8.40
2019-01-17T05:37:46.519Z,8.40
2019-01-17T05:40:47.310Z,8.40
2019-01-17T05:43:47.926Z,8.40
2019-01-17T05:46:48.807Z,8.40
2019-01-17T05:49:49.589Z,8.40
2019-01-17T05:52:50.427Z,8.40
2019-01-17T05:55:53.808Z,8.40
2019-01-17T05:58:55.900Z,8.40
2019-01-17T06:01:56.206Z,8.40
2019-01-17T06:04:56.483Z,8.40
2019-01-17T06:07:59.628Z,8.40
2019-01-17T06:11:00.156Z,8.40
2019-01-17T06:14:00.670Z,8.40
2019-01-17T06:17:01.066Z,8.40
2019-01-17T06:20:01.631Z,8.40
2019-01-17T06:23:03.413Z,8.40
2019-01-17T06:26:03.772Z,8.40
2019-01-17T06:29:04.095Z,8.40
2019-01-17T06:32:04.436Z,8.40
2019-01-17T06:35:05.728Z,8.40
2019-01-17T06:38:06.131Z,8.40
2019-01-17T06:41:08.359Z,8.40
2019-01-17T06:44:08.966Z,8.40
2019-01-17T06:47:09.316Z,8.40
2019-01-17T06:50:09.754Z,8.40
2019-01-17T06:53:10.159Z,8.40
2019-01-17T06:56:10.587Z,8.40
2019-01-17T06:59:11.018Z,8.40
2019-01-17T07:02:11.370Z,8.40
2019-01-17T07:05:12.419Z,8.40
2019-01-17T07:08:12.749Z,8.40
2019-01-17T07:11:13.154Z,8.40
2019-01-17T07:14:13.442Z,8.40
2019-01-17T07:17:13.815Z,8.40
2019-01-17T07:20:15.490Z,8.40
2019-01-17T07:23:15.771Z,8.40
2019-01-17T07:26:16.060Z,8.40
2019-01-17T07:29:16.720Z,8.40
2019-01-17T07:32:18.386Z,8.40
2019-01-17T07:35:19.234Z,8.40
2019-01-17T07:38:19.575Z,8.50
2019-01-17T07:41:19.976Z,8.50
2019-01-17T07:44:20.392Z,8.50
2019-01-17T07:47:20.942Z,8.50
2019-01-17T07:50:21.270Z,8.50
2019-01-17T07:53:21.780Z,8.50
2019-01-17T07:56:22.229Z,8.50
2019-01-17T07:59:28.614Z,8.50
2019-01-17T08:02:28.990Z,8.50
2019-01-17T08:05:29.363Z,8.50
2019-01-17T08:08:29.750Z,8.50
2019-01-17T08:11:30.177Z,8.60
2019-01-17T08:14:30.592Z,8.50
2019-01-17T08:17:33.919Z,8.60
2019-01-17T08:20:34.406Z,8.60
2019-01-17T08:23:34.936Z,8.60
2019-01-17T08:26:36.761Z,8.60
2019-01-17T08:29:37.367Z,8.60
2019-01-17T08:32:37.939Z,8.60
2019-01-17T08:35:38.351Z,8.60
2019-01-17T08:38:38.947Z,8.60
2019-01-17T08:41:39.350Z,8.60
2019-01-17T08:44:39.744Z,8.60
2019-01-17T08:47:40.191Z,8.60
2019-01-17T08:50:40.701Z,8.60
2019-01-17T08:53:41.118Z,8.70
2019-01-17T08:56:41.442Z,8.70
2019-01-17T08:59:41.963Z,8.70
2019-01-17T09:02:42.327Z,8.60
2019-01-17T09:05:42.817Z,8.70
2019-01-17T09:08:44.746Z,8.70
2019-01-17T09:11:45.179Z,8.70
2019-01-17T09:14:45.623Z,8.70
2019-01-17T09:17:47.596Z,8.80
2019-01-17T09:20:47.953Z,8.80
2019-01-17T09:23:48.591Z,8.80
2019-01-17T09:26:48.966Z,8.80
2019-01-17T09:29:49.333Z,8.80
2019-01-17T09:32:49.614Z,8.80
2019-01-17T09:35:49.963Z,8.80
2019-01-17T09:38:50.494Z,8.80
2019-01-17T09:41:52.653Z,8.80
2019-01-17T09:44:53.361Z,8.90
2019-01-17T09:47:53.768Z,8.90
2019-01-17T09:50:54.153Z,8.90
2019-01-17T09:53:59.175Z,8.90
2019-01-17T09:56:59.496Z,8.90
2019-01-17T09:59:59.779Z,9.00
2019-01-17T10:03:01.974Z,9.00
2019-01-17T10:06:02.672Z,9.00
2019-01-17T10:09:04.472Z,9.00
2019-01-17T10:12:05.327Z,9.10
2019-01-17T10:15:09.732Z,9.10
2019-01-17T10:18:51.222Z,9.10
2019-01-17T10:23:02.894Z,9.10
2019-01-17T10:26:31.999Z,9.20
2019-01-17T10:30:03.309Z,9.20
2019-01-17T10:33:20.744Z,9.20
2019-01-17T10:37:08.375Z,9.30
2019-01-17T10:40:47.008Z,9.30
2019-01-17T10:44:16.088Z,9.30
2019-01-17T10:48:00.071Z,9.40
2019-01-17T10:51:49.882Z,9.40
2019-01-17T10:55:45.338Z,9.50
2019-01-17T10:59:23.812Z,9.60
2019-01-17T11:03:17.019Z,9.70
2019-01-17T11:06:41.235Z,9.70
2019-01-17T11:10:27.660Z,9.80
2019-01-17T11:14:16.248Z,9.80
2019-01-17T11:17:52.239Z,9.90
2019-01-17T11:21:22.889Z,9.90
2019-01-17T11:25:19.758Z,10.00
2019-01-17T11:29:16.614Z,10.00
2019-01-17T11:32:56.173Z,10.10
2019-01-17T11:36:39.328Z,10.20
2019-01-17T11:40:35.793Z,10.30
2019-01-17T11:44:21.886Z,10.30
2019-01-17T11:47:36.881Z,10.30
2019-01-17T11:51:32.485Z,10.40
2019-01-17T11:55:26.944Z,10.40
2019-01-17T11:59:07.916Z,10.40
2019-01-17T12:02:45.182Z,10.40
2019-01-17T12:05:45.643Z,10.40
2019-01-17T12:08:45.946Z,10.50
2019-01-17T12:11:46.331Z,10.50
2019-01-17T12:14:46.610Z,10.50
2019-01-17T12:17:47.150Z,10.50
2019-01-17T12:20:47.640Z,10.50
2019-01-17T12:23:48.114Z,10.60
2019-01-17T12:26:48.527Z,10.60
2019-01-17T12:29:48.855Z,10.60
2019-01-17T12:32:49.211Z,10.60
2019-01-17T12:35:49.655Z,10.70
2019-01-17T12:38:50.133Z,10.70
2019-01-17T12:41:53.655Z,10.80
2019-01-17T12:44:54.131Z,10.90
2019-01-17T12:47:54.434Z,11.10
2019-01-17T12:50:54.755Z,11.30
2019-01-17T12:53:55.205Z,11.60
2019-01-17T12:56:55.725Z,11.90
2019-01-17T12:59:56.124Z,12.20
2019-01-17T13:02:56.475Z,12.40
2019-01-17T13:05:56.832Z,12.50
2019-01-17T13:08:57.278Z,12.60
2019-01-17T13:11:57.765Z,12.60
2019-01-17T13:14:58.193Z,12.70
2019-01-17T13:17:58.612Z,12.70
2019-01-17T13:20:59.111Z,12.90
2019-01-17T13:23:59.510Z,13.10
2019-01-17T13:27:02.903Z,13.30
2019-01-17T13:30:03.247Z,13.50
2019-01-17T13:33:05.212Z,13.80
2019-01-17T13:36:10.301Z,14.10
2019-01-17T13:39:10.627Z,14.30
2019-01-17T13:42:10.970Z,14.50
2019-01-17T13:45:14.948Z,14.80
2019-01-17T13:48:15.388Z,15.10
2019-01-17T13:51:15.873Z,15.30
2019-01-17T13:54:17.812Z,15.30
2019-01-17T13:57:18.218Z,15.30
2019-01-17T14:00:23.258Z,15.40
2019-01-17T14:03:25.450Z,15.40
2019-01-17T14:06:26.219Z,15.40
2019-01-17T14:09:26.935Z,15.40
2019-01-17T14:12:27.616Z,15.40
2019-01-17T14:15:29.583Z,15.40
2019-01-17T14:18:30.036Z,15.40
2019-01-17T14:21:30.428Z,15.40
2019-01-17T14:24:30.804Z,14.50
2019-01-17T14:27:31.215Z,12.80
2019-01-17T14:30:33.207Z,12.30
2019-01-17T14:33:33.912Z,11.90
2019-01-17T14:36:34.482Z,12.60
2019-01-17T14:39:34.927Z,13.50
2019-01-17T14:42:35.271Z,13.90
2019-01-17T14:45:35.696Z,14.10
2019-01-17T14:48:36.315Z,14.30
2019-01-17T14:51:39.424Z,14.70
2019-01-17T14:54:39.896Z,14.70
2019-01-17T14:57:40.536Z,14.60
2019-01-17T15:00:40.890Z,14.60
2019-01-17T15:03:41.414Z,14.80
2019-01-17T15:06:41.782Z,14.80
2019-01-17T15:09:42.262Z,14.80
2019-01-17T15:12:42.652Z,14.80
2019-01-17T15:15:43.671Z,14.80
2019-01-17T15:18:45.230Z,14.70
2019-01-17T15:21:45.660Z,14.70
2019-01-17T15:24:46.148Z,14.70
2019-01-17T15:27:46.691Z,14.70
2019-01-17T15:30:50.290Z,14.90
2019-01-17T15:33:50.671Z,15.10
2019-01-17T15:36:50.968Z,15.20
2019-01-17T15:39:51.394Z,15.20
2019-01-17T15:42:51.755Z,15.10
2019-01-17T15:45:52.115Z,15.00
2019-01-17T15:48:52.536Z,15.00
2019-01-17T15:51:53.307Z,15.00
2019-01-17T15:54:53.683Z,14.80
2019-01-17T15:57:54.018Z,14.80
2019-01-17T16:00:56.556Z,14.70
2019-01-17T16:03:58.134Z,14.70
2019-01-17T16:06:58.580Z,14.60
2019-01-17T16:09:58.972Z,14.60
2019-01-17T16:12:59.375Z,14.60
2019-01-17T16:16:01.516Z,14.50
2019-01-17T16:19:01.831Z,14.50
2019-01-17T16:22:02.238Z,14.40
2019-01-17T16:25:02.714Z,14.30
2019-01-17T16:28:05.782Z,14.20
2019-01-17T16:31:06.363Z,14.10
2019-01-17T16:34:06.930Z,14.10
2019-01-17T16:37:07.467Z,14.00
2019-01-17T16:40:08.686Z,13.90
2019-01-17T16:43:09.272Z,13.80
2019-01-17T16:46:09.650Z,13.80
2019-01-17T16:49:10.075Z,13.70
2019-01-17T16:52:10.490Z,13.70
2019-01-17T16:55:11.670Z,13.60
2019-01-17T16:58:12.204Z,13.50
2019-01-17T17:01:12.621Z,13.50
2019-01-17T17:04:13.134Z,13.40
2019-01-17T17:07:13.618Z,13.40
2019-01-17T17:10:20.268Z,13.40
2019-01-17T17:13:21.053Z,13.30
2019-01-17T17:16:21.827Z,13.20
2019-01-17T17:19:22.225Z,13.10
2019-01-17T17:22:25.441Z,13.10
2019-01-17T17:25:25.975Z,13.00
2019-01-17T17:28:27.714Z,13.00
2019-01-17T17:31:30.417Z,12.90
2019-01-17T17:34:30.984Z,12.90
2019-01-17T17:37:32.500Z,12.80
2019-01-17T17:40:34.746Z,12.80
2019-01-17T17:43:35.197Z,12.70
2019-01-17T17:46:35.714Z,12.70
2019-01-17T17:49:36.315Z,12.60
2019-01-17T17:52:36.846Z,12.60
2019-01-17T17:55:37.294Z,12.50
2019-01-17T17:58:41.618Z,12.50
2019-01-17T18:01:44.602Z,12.40
2019-01-17T18:04:45.025Z,12.40
2019-01-17T18:07:50.005Z,12.30
2019-01-17T18:10:50.635Z,12.30
2019-01-17T18:13:51.157Z,12.20
2019-01-17T18:16:51.704Z,12.20
2019-01-17T18:19:52.196Z,12.10
2019-01-17T18:22:55.551Z,12.10
2019-01-17T18:25:57.281Z,12.00
2019-01-17T18:28:57.680Z,12.00
2019-01-17T18:31:58.275Z,11.90
2019-01-17T18:34:58.729Z,11.90
2019-01-17T18:37:59.321Z,11.80
2019-01-17T18:41:01.567Z,11.80
2019-01-17T18:44:02.386Z,11.70
2019-01-17T18:47:03.775Z,11.70
2019-01-17T18:50:09.187Z,11.70
2019-01-17T18:53:09.833Z,11.60
2019-01-17T18:56:13.194Z,11.60
2019-01-17T18:59:15.606Z,11.60
2019-01-17T19:02:15.717Z,11.50
2019-01-17T19:05:16.241Z,11.50
2019-01-17T19:08:16.936Z,11.50
2019-01-17T19:11:20.433Z,11.40
2019-01-17T19:14:20.769Z,11.30
2019-01-17T19:17:21.202Z,11.30
2019-01-17T19:20:21.818Z,11.30
2019-01-17T19:23:22.187Z,11.20
2019-01-17T19:26:22.682Z,11.20
2019-01-17T19:29:27.413Z,11.20
2019-01-17T19:32:30.632Z,11.10
2019-01-17T19:35:31.126Z,11.10
2019-01-17T19:38:31.612Z,11.10
2019-01-17T19:41:32.109Z,11.00
2019-01-17T19:44:33.610Z,11.00
2019-01-17T19:47:34.090Z,11.00
2019-01-17T19:50:37.286Z,11.00
2019-01-17T19:53:37.775Z,10.90
2019-01-17T19:56:38.384Z,10.90
2019-01-17T19:59:38.726Z,10.90
2019-01-17T20:02:39.177Z,10.90
2019-01-17T20:05:40.675Z,10.80
2019-01-17T20:08:41.139Z,10.80
2019-01-17T20:11:41.950Z,10.80
2019-01-17T20:14:42.660Z,10.70
2019-01-17T20:17:43.332Z,10.70
2019-01-17T20:20:43.989Z,10.60
2019-01-17T20:23:44.892Z,10.60
2019-01-17T20:26:45.297Z,10.60
2019-01-17T20:29:49.611Z,10.60
2019-01-17T20:32:50.427Z,10.60
2019-01-17T20:35:51.194Z,10.50
2019-01-17T20:38:52.172Z,10.50
2019-01-17T20:41:52.903Z,10.40
2019-01-17T20:44:55.950Z,10.40
2019-01-17T20:47:56.534Z,10.40
2019-01-17T20:50:56.977Z,10.40
2019-01-17T20:53:57.419Z,10.40
2019-01-17T20:56:59.769Z,10.30
2019-01-17T21:00:06.629Z,10.30
2019-01-17T21:03:12.985Z,10.30
2019-01-17T21:06:13.579Z,10.20
2019-01-17T21:09:14.123Z,10.20
2019-01-17T21:12:14.539Z,10.20
2019-01-17T21:15:15.780Z,10.20
2019-01-17T21:18:16.334Z,10.10
2019-01-17T21:21:17.777Z,10.10
2019-01-17T21:24:19.724Z,10.10
2019-01-17T21:27:20.220Z,10.00
2019-01-17T21:30:22.785Z,10.00
2019-01-17T21:33:23.338Z,10.00
2019-01-17T21:36:29.328Z,10.00
2019-01-17T21:39:29.880Z,10.00
2019-01-17T21:42:30.269Z,9.90
2019-01-17T21:45:31.797Z,9.90
2019-01-17T21:48:32.263Z,9.90
2019-01-17T21:51:32.715Z,9.90
2019-01-17T21:54:33.374Z,9.80
2019-01-17T21:57:33.757Z,9.80
2019-01-17T22:00:34.042Z,9.80
2019-01-17T22:03:36.304Z,9.80
2019-01-17T22:06:36.939Z,9.70
2019-01-17T22:09:39.243Z,9.70
2019-01-17T22:12:39.660Z,9.60
2019-01-17T22:15:40.027Z,9.60
2019-01-17T22:18:40.370Z,9.60
2019-01-17T22:21:40.787Z,9.60
2019-01-17T22:24:41.219Z,9.60
2019-01-17T22:27:41.638Z,9.50
2019-01-17T22:30:42.074Z,9.50
2019-01-17T22:33:42.473Z,9.50
2019-01-17T22:36:42.922Z,9.40
2019-01-17T22:39:43.347Z,9.40
2019-01-17T22:42:45.318Z,9.40
2019-01-17T22:45:45.650Z,9.40
2019-01-17T22:48:46.064Z,9.30
2019-01-17T22:51:46.519Z,9.30
2019-01-17T22:54:46.932Z,9.30
2019-01-17T22:57:48.605Z,9.20
2019-01-17T23:01:23.673Z,9.20
2019-01-17T23:04:24.078Z,9.20
2019-01-17T23:07:24.502Z,9.10
2019-01-17T23:10:24.920Z,9.10
2019-01-17T23:13:29.460Z,9.10
2019-01-17T23:16:29.757Z,9.10
2019-01-17T23:19:30.102Z,9.00
2019-01-17T23:22:31.479Z,9.00
2019-01-17T23:25:31.873Z,9.00
2019-01-17T23:28:32.343Z,8.90
2019-01-17T23:31:32.722Z,8.90
2019-01-17T23:34:33.306Z,8.90
2019-01-17T23:37:33.800Z,8.90
2019-01-17T23:40:34.152Z,8.80
2019-01-17T23:43:34.563Z,8.80
2019-01-17T23:46:34.875Z,8.80
2019-01-17T23:49:35.455Z,8.80
2019-01-17T23:52:35.834Z,8.80
2019-01-17T23:55:36.358Z,8.70
2019-01-17T23:58:36.771Z,8.70
